| Time | Temp. | Dewp. | Hum. | Посока н | Скорост на | Пориви на | Bar. | 1h Prec. | 24h Prec. |
|---|---|---|---|---|---|---|---|---|---|
| 00:00 | 17.3 | 15.1 | 87 | 90 | 0.3 | 0.6 | 1019.4 | 0.0000 | 0.0000 |
| 00:10 | 17.2 | 15 | 87 | 131 | 0.3 | 0.8 | 1019.2 | 0.0000 | 0.0000 |
| 00:20 | 17.1 | 14.9 | 87 | 135 | 0.3 | 0.6 | 1019.1 | 0.0000 | 0.0000 |
| 00:30 | 17 | 15 | 88 | 45 | 0.3 | 0.8 | 1019.3 | 0.0000 | 0.0000 |
| 00:40 | 16.9 | 14.9 | 88 | 90 | 0.3 | 0.6 | 1019.2 | 0.0000 | 0.0000 |
| 00:51 | 16.8 | 14.8 | 88 | 139 | 0.3 | 0.8 | 1019.2 | 0.0000 | 0.0000 |
| 01:00 | 16.8 | 14.8 | 88 | 90 | 0.3 | 0.6 | 1019.1 | 0.0000 | 0.0000 |
| 01:10 | 16.6 | 14.6 | 88 | 90 | 0.3 | 0.8 | 1019 | 0.0000 | 0.0000 |
| 01:21 | 16.4 | 14.6 | 89 | 143 | 0.3 | 1.1 | 1018.9 | 0.0000 | 0.0000 |
| 01:31 | 16.2 | 14.4 | 89 | 90 | 0.3 | 0.8 | 1018.8 | 0.0000 | 0.0000 |
| 01:41 | 16.1 | 14.3 | 89 | 167 | 0.3 | 0.8 | 1018.6 | 0.0000 | 0.0000 |
| 01:51 | 15.9 | 14.1 | 89 | 144 | 0.3 | 0.6 | 1018.5 | 0.0000 | 0.0000 |
| 02:01 | 15.7 | 14.1 | 90 | 90 | 0.3 | 0.8 | 1018.5 | 0.0000 | 0.0000 |
| 02:11 | 15.6 | 14 | 90 | 123 | 0.3 | 0.8 | 1018.4 | 0.0000 | 0.0000 |
| 02:21 | 15.5 | 13.9 | 90 | 140 | 0.3 | 0.8 | 1018.4 | 0.0000 | 0.0000 |
| 02:32 | 15.4 | 13.8 | 90 | 184 | 0.6 | 0.8 | 1018.3 | 0.0000 | 0.0000 |
| 02:41 | 15.3 | 13.8 | 91 | 90 | 0.3 | 0.8 | 1018.4 | 0.0000 | 0.0000 |
| 02:51 | 15.2 | 13.7 | 91 | 130 | 0.3 | 0.8 | 1018.3 | 0.0000 | 0.0000 |
| 03:01 | 15.2 | 13.7 | 91 | 155 | 0.3 | 0.8 | 1018.3 | 0.0000 | 0.0000 |
| 03:12 | 15.2 | 13.9 | 92 | 155 | 0.3 | 1.4 | 1018.3 | 0.0000 | 0.0000 |
| 03:22 | 15.2 | 13.9 | 92 | 184 | 0.6 | 1.1 | 1018 | 0.0000 | 0.0000 |
| 03:31 | 15.3 | 14 | 92 | 149 | 0.3 | 0.8 | 1017.9 | 0.0000 | 0.0000 |
| 03:42 | 15.3 | 14.2 | 93 | 135 | 0.3 | 0.8 | 1017.8 | 0.0000 | 0.0000 |
| 03:52 | 15.3 | 14.2 | 93 | 164 | 0.3 | 0.8 | 1017.7 | 0.0000 | 0.0000 |
| 04:02 | 15.2 | 14.1 | 93 | 170 | 0.6 | 1.1 | 1017.7 | 0.0000 | 0.0000 |
| 04:12 | 15.1 | 13.8 | 92 | 166 | 0.3 | 0.8 | 1017.5 | 0.0000 | 0.0000 |
| 04:22 | 14.9 | 13.8 | 93 | 156 | 0.6 | 1.4 | 1017.4 | 0.0000 | 0.0000 |
| 04:32 | 14.9 | 13.8 | 93 | 163 | 0.6 | 1.1 | 1017.3 | 0.0000 | 0.0000 |
| 04:42 | 14.8 | 13.8 | 94 | 183 | 0.3 | 1.1 | 1017.3 | 0.0000 | 0.0000 |
| 04:52 | 14.9 | 13.9 | 94 | 195 | 0.6 | 1.7 | 1017.2 | 0.0000 | 0.0000 |
| 05:03 | 14.8 | 13.8 | 94 | 131 | 0.6 | 1.7 | 1017.1 | 0.0000 | 0.0000 |
| 05:12 | 14.8 | 14 | 95 | 45 | 0.6 | 1.1 | 1017.2 | 0.0000 | 0.0000 |
| 05:22 | 14.9 | 14.3 | 96 | 270 | 0.6 | 2.5 | 1017.1 | 0.0000 | 0.0000 |
| 05:33 | 15.3 | 14.7 | 96 | 315 | 0.6 | 1.7 | 1017.1 | 0.0000 | 0.0000 |
| 05:43 | 15.6 | 15.1 | 97 | 21 | 0.6 | 1.9 | 1016.9 | 0.0000 | 0.0000 |
| 05:53 | 16.3 | 16 | 98 | 284 | 0.8 | 2.2 | 1017.1 | 0.0000 | 0.0000 |
| 06:03 | 16.9 | 16.4 | 97 | 66 | 0.6 | 2.5 | 1016.8 | 0.0000 | 0.0000 |
| 06:13 | 17.4 | 16.6 | 95 | 320 | 0.6 | 2.2 | 1016.7 | 0.0000 | 0.0000 |
| 06:23 | 17.7 | 16.6 | 93 | 351 | 0.3 | 1.4 | 1016.7 | 0.0000 | 0.0000 |
| 06:33 | 18 | 16.7 | 92 | 38 | 0.6 | 1.9 | 1016.6 | 0.0000 | 0.0000 |
| 06:44 | 18.2 | 16.7 | 91 | 330 | 0.6 | 1.7 | 1016.5 | 0.0000 | 0.0000 |
| 06:54 | 18.4 | 16.7 | 90 | 50 | 0.6 | 2.2 | 1016.5 | 0.0000 | 0.0000 |
| 07:03 | 18.6 | 16.9 | 90 | 336 | 0.8 | 1.9 | 1016.5 | 0.0000 | 0.0000 |
| 07:13 | 18.7 | 16.9 | 89 | 338 | 0.3 | 1.1 | 1016.6 | 0.0000 | 0.0000 |
| 07:24 | 18.9 | 17 | 89 | 0 | 0.6 | 2.5 | 1016.6 | 0.0000 | 0.0000 |
| 07:34 | 19 | 17.1 | 89 | 270 | 0.3 | 1.1 | 1016.6 | 0.0000 | 0.0000 |
| 07:44 | 19.1 | 17.1 | 88 | 311 | 0.6 | 1.4 | 1016.6 | 0.0000 | 0.0000 |
| 07:54 | 19.3 | 17.3 | 88 | 2 | 0.8 | 2.2 | 1016.5 | 0.0000 | 0.0000 |
| 08:04 | 19.4 | 17.4 | 88 | 9 | 0.6 | 1.4 | 1016.5 | 0.0000 | 0.0000 |
| 08:14 | 19.6 | 17.4 | 87 | 42 | 0.6 | 1.4 | 1016.4 | 0.0000 | 0.0000 |
| 08:24 | 19.8 | 17.6 | 87 | 3 | 1.1 | 2.2 | 1016.2 | 0.0000 | 0.0000 |
| 08:33 | 20.1 | 17.7 | 86 | 358 | 1.1 | 2.2 | 1016.2 | 0.0000 | 0.0000 |
| 08:42 | 20.3 | 17.9 | 86 | 305 | 0.6 | 2.2 | 1016.2 | 0.0000 | 0.0000 |
| 08:53 | 20.5 | 17.9 | 85 | 354 | 1.1 | 3.6 | 1016.3 | 0.0000 | 0.0000 |
| 09:03 | 20.7 | 17.9 | 84 | 345 | 0.8 | 2.2 | 1016.3 | 0.0000 | 0.0000 |
| 09:13 | 20.8 | 18 | 84 | 336 | 0.6 | 1.9 | 1016.1 | 0.0000 | 0.0000 |
| 09:23 | 21 | 18 | 83 | 90 | 0.6 | 1.4 | 1016.1 | 0.0000 | 0.0000 |
| 09:33 | 21.1 | 18.1 | 83 | 61 | 0.6 | 1.7 | 1016 | 0.0000 | 0.0000 |
| 09:43 | 21.4 | 18.4 | 83 | 10 | 0.6 | 1.9 | 1015.8 | 0.0000 | 0.0000 |
| 09:53 | 21.9 | 18.5 | 81 | 90 | 0.6 | 1.9 | 1015.6 | 0.0000 | 0.0000 |
| 10:04 | 22.5 | 18.7 | 79 | 216 | 0.8 | 1.9 | 1015.5 | 0.0000 | 0.0000 |
| 10:14 | 23.3 | 18.8 | 76 | 122 | 1.4 | 4.4 | 1015.5 | 0.0000 | 0.0000 |
| 10:23 | 23.9 | 19.2 | 75 | 147 | 1.4 | 2.5 | 1015.4 | 0.0000 | 0.0000 |
| 10:33 | 24.6 | 19.2 | 72 | 315 | 1.1 | 3.6 | 1015.4 | 0.0000 | 0.0000 |
| 10:44 | 25.2 | 19.3 | 70 | 70 | 1.4 | 3.9 | 1015.3 | 0.0000 | 0.0000 |
| 10:54 | 25.4 | 19.3 | 69 | 167 | 1.7 | 3.6 | 1015.4 | 0.0000 | 0.0000 |
| 11:04 | 25.4 | 19.3 | 69 | 288 | 0.8 | 1.9 | 1015.1 | 0.0000 | 0.0000 |
| 11:14 | 25.6 | 19.5 | 69 | 156 | 2.2 | 4.2 | 1014.9 | 0.0000 | 0.0000 |
| 11:24 | 25.9 | 19.3 | 67 | 1.7 | 3.3 | 1014.8 | 0.0000 | 0.0000 | |
| 11:34 | 26.2 | 19.3 | 66 | 140 | 2.5 | 5.6 | 1014.6 | 0.0000 | 0.0000 |
| 11:44 | 26.5 | 19.6 | 66 | 77 | 1.4 | 2.8 | 1014.3 | 0.0000 | 0.0000 |
| 11:55 | 27 | 19.6 | 64 | 187 | 1.9 | 4.2 | 1014.3 | 0.0000 | 0.0000 |
| 12:04 | 27.1 | 18.9 | 61 | 1.9 | 4.4 | 1014.2 | 0.0000 | 0.0000 | |
| 12:14 | 27.3 | 19.4 | 62 | 21 | 2.2 | 4.2 | 1014.4 | 0.0000 | 0.0000 |
| 12:25 | 27.1 | 19.2 | 62 | 358 | 1.4 | 3.3 | 1014.3 | 0.0000 | 0.0000 |
| 12:35 | 26.8 | 19.2 | 63 | 90 | 1.1 | 2.5 | 1014.3 | 0.0000 | 0.0000 |
| 12:45 | 26.9 | 19.3 | 63 | 99 | 1.4 | 4.7 | 1014.2 | 0.0000 | 0.0000 |
| 12:54 | 27 | 19.4 | 63 | 69 | 1.1 | 3.3 | 1014.1 | 0.0000 | 0.0000 |